Time;durP1;ratioP1;P1;durP2;ratioP2;P2;SDS_P1;SDS_P2;PMS_P1;PMS_P2;Temp;Humidity;BMP_temperature;BMP_pressure;BME280_temperature;BME280_humidity;BME280_pressure;Samples;Min_cycle;Max_cycle;Signal;HPM_P1;HPM_P2
2021/01/21 00:01:56;;;;;;;5.13;3.40;;;8.00;99.90;;;;;;4951314;29;20223;-84
2021/01/21 00:04:28;;;;;;;6.97;4.10;;;7.90;99.90;;;;;;4952352;29;20286;-86
2021/01/21 00:06:59;;;;;;;5.40;3.57;;;7.80;99.90;;;;;;4968960;29;20297;-88
2021/01/21 00:09:30;;;;;;;5.47;3.70;;;7.80;99.90;;;;;;4959771;29;20240;-86
2021/01/21 00:12:02;;;;;;;5.83;3.83;;;7.80;99.90;;;;;;4968503;28;20214;-86
2021/01/21 00:14:33;;;;;;;5.00;3.60;;;7.70;99.90;;;;;;4955201;29;20212;-86
2021/01/21 00:17:04;;;;;;;3.83;3.43;;;7.60;99.90;;;;;;4966848;29;20207;-86
2021/01/21 00:19:35;;;;;;;5.20;3.80;;;7.60;99.90;;;;;;4969780;29;20298;-84
2021/01/21 00:22:06;;;;;;;5.60;3.97;;;7.50;99.90;;;;;;4968433;29;20211;-87
2021/01/21 00:24:36;;;;;;;6.07;4.23;;;7.50;99.90;;;;;;4969102;29;20231;-83
2021/01/21 00:27:07;;;;;;;5.90;3.63;;;7.40;99.90;;;;;;4954617;29;20245;-86
2021/01/21 00:29:40;;;;;;;5.07;3.87;;;7.40;99.90;;;;;;4973031;29;20210;-86
2021/01/21 00:32:14;;;;;;;8.53;3.60;;;7.40;99.90;;;;;;4968189;29;20214;-85
2021/01/21 00:34:45;;;;;;;5.03;4.00;;;7.40;99.90;;;;;;4968133;29;20314;-85
2021/01/21 00:37:16;;;;;;;9.07;4.30;;;7.40;99.90;;;;;;4967791;29;20204;-86
2021/01/21 00:39:47;;;;;;;6.17;4.07;;;7.30;99.90;;;;;;4971052;29;20287;-85
2021/01/21 00:42:18;;;;;;;5.00;3.90;;;7.20;99.90;;;;;;4966624;29;20272;-86
2021/01/21 00:44:56;;;;;;;6.67;3.90;;;7.20;99.90;;;;;;4965490;29;20224;-85
2021/01/21 00:47:29;;;;;;;4.90;4.00;;;7.20;99.90;;;;;;4967107;29;20238;-89
2021/01/21 00:49:59;;;;;;;5.90;4.50;;;7.10;99.90;;;;;;4968817;29;20231;-90
2021/01/21 00:52:30;;;;;;;5.13;4.37;;;7.10;99.90;;;;;;4951283;29;20609;-89
2021/01/21 00:55:00;;;;;;;6.43;4.53;;;7.10;99.90;;;;;;4970750;29;20207;-89
2021/01/21 00:57:33;;;;;;;5.43;4.57;;;7.00;99.90;;;;;;4965633;29;20268;-88
2021/01/21 01:00:08;;;;;;;7.57;4.63;;;7.00;99.90;;;;;;4960020;29;20202;-88
2021/01/21 01:02:39;;;;;;;8.53;4.50;;;6.90;99.90;;;;;;4952906;29;20204;-89
2021/01/21 01:05:12;;;;;;;8.27;4.70;;;6.90;99.90;;;;;;4961021;29;20240;-88
2021/01/21 01:07:42;;;;;;;6.97;5.17;;;6.80;99.90;;;;;;4955016;29;20203;-90
2021/01/21 01:10:14;;;;;;;6.33;4.90;;;6.80;99.90;;;;;;4953681;29;20214;-90
2021/01/21 01:12:45;;;;;;;8.23;4.90;;;6.80;99.90;;;;;;4970530;28;20203;-89
2021/01/21 01:15:20;;;;;;;5.90;4.73;;;6.70;99.90;;;;;;4973778;29;20205;-89
2021/01/21 01:17:51;;;;;;;7.43;5.20;;;6.70;99.90;;;;;;4973736;29;20281;-89
2021/01/21 01:20:29;;;;;;;7.90;5.60;;;6.70;99.90;;;;;;4958534;29;20208;-89
2021/01/21 01:22:59;;;;;;;9.83;5.87;;;6.60;99.90;;;;;;4952969;29;20203;-89
2021/01/21 01:25:30;;;;;;;8.23;5.47;;;6.60;99.90;;;;;;4956190;29;20215;-90
2021/01/21 01:28:01;;;;;;;7.37;5.40;;;6.60;99.90;;;;;;4971122;29;20211;-88
2021/01/21 01:30:39;;;;;;;8.97;5.40;;;6.60;99.90;;;;;;4964055;29;20217;-90
2021/01/21 01:33:09;;;;;;;7.83;6.03;;;6.50;99.90;;;;;;4956323;29;20246;-89
2021/01/21 01:35:41;;;;;;;8.23;5.87;;;6.50;99.90;;;;;;4969589;29;20218;-89
2021/01/21 01:38:13;;;;;;;7.67;5.40;;;6.50;99.90;;;;;;4976568;29;20225;-88
2021/01/21 01:40:44;;;;;;;7.57;6.03;;;6.40;99.90;;;;;;4976216;29;20211;-89
2021/01/21 01:43:15;;;;;;;9.23;5.57;;;6.40;99.90;;;;;;4956347;29;20223;-90
2021/01/21 01:45:49;;;;;;;7.70;5.43;;;6.30;99.90;;;;;;4971388;29;20218;-89
2021/01/21 01:48:20;;;;;;;8.83;5.70;;;6.30;99.90;;;;;;4956886;29;20225;-89
2021/01/21 01:50:53;;;;;;;8.50;5.57;;;6.20;99.90;;;;;;4952938;29;20225;-90
2021/01/21 01:53:24;;;;;;;8.03;5.77;;;6.20;99.90;;;;;;4952737;29;20215;-90
2021/01/21 01:55:55;;;;;;;7.50;5.00;;;6.10;99.90;;;;;;4956812;29;20214;-89
2021/01/21 01:58:27;;;;;;;7.83;4.87;;;6.10;99.90;;;;;;4973498;28;20229;-91
2021/01/21 02:01:00;;;;;;;7.60;4.73;;;6.00;99.90;;;;;;4963628;28;20188;-89
2021/01/21 02:03:31;;;;;;;6.97;5.13;;;5.90;99.90;;;;;;4617070;29;10000592;-90
2021/01/21 02:06:02;;;;;;;6.57;5.20;;;5.80;99.90;;;;;;4964187;29;20205;-90
2021/01/21 02:08:33;;;;;;;8.63;5.83;;;5.70;99.90;;;;;;4952230;29;20209;-89
2021/01/21 02:11:15;;;;;;;8.53;5.50;;;5.60;99.90;;;;;;4954235;29;20307;-90
2021/01/21 02:13:51;;;;;;;7.67;5.37;;;5.60;99.90;;;;;;4945495;29;20215;-89
2021/01/21 02:16:51;;;;;;;7.63;5.83;;;5.50;99.90;;;;;;4956105;29;20545;-90
2021/01/21 02:20:01;;;;;;;8.27;6.37;;;5.50;99.90;;;;;;4955426;29;20236;-89
2021/01/21 02:23:11;;;;;;;12.17;6.40;;;5.40;99.90;;;;;;4932262;29;20222;-90
2021/01/21 02:25:48;;;;;;;10.83;6.27;;;5.40;99.90;;;;;;4953112;29;20309;-89
2021/01/21 02:28:52;;;;;;;9.53;6.37;;;5.40;99.90;;;;;;4955357;29;20204;-89
2021/01/21 02:31:56;;;;;;;9.10;5.93;;;5.30;99.90;;;;;;4956887;29;20199;-90
2021/01/21 02:34:36;;;;;;;9.63;6.30;;;5.30;99.90;;;;;;4962275;29;20235;-89
2021/01/21 02:37:11;;;;;;;9.27;6.53;;;5.40;99.90;;;;;;4975130;29;20216;-89
2021/01/21 02:39:45;;;;;;;7.07;5.10;;;5.40;99.90;;;;;;4973478;29;20229;-88
2021/01/21 02:42:16;;;;;;;8.10;5.90;;;5.50;99.90;;;;;;4964485;29;20259;-88
2021/01/21 02:44:51;;;;;;;9.57;5.40;;;5.50;99.90;;;;;;4951439;29;20249;-91
2021/01/21 02:47:24;;;;;;;7.80;5.43;;;5.60;99.90;;;;;;4972970;29;20226;-92
2021/01/21 02:49:57;;;;;;;7.67;5.63;;;5.60;99.90;;;;;;4958470;29;20216;-90
2021/01/21 02:52:33;;;;;;;8.90;5.80;;;5.60;99.90;;;;;;4955687;29;20205;-91
2021/01/21 02:55:14;;;;;;;9.93;5.57;;;5.70;99.90;;;;;;4953559;29;20212;-90
2021/01/21 02:57:49;;;;;;;8.93;6.20;;;5.70;99.90;;;;;;4972338;29;20290;-90
2021/01/21 03:00:22;;;;;;;9.17;5.77;;;5.70;99.90;;;;;;4970524;29;20200;-90
2021/01/21 03:03:01;;;;;;;9.80;6.70;;;5.80;99.90;;;;;;4964280;29;20234;-90
2021/01/21 03:05:34;;;;;;;9.97;6.23;;;5.80;99.90;;;;;;4968544;29;20251;-89
2021/01/21 03:08:06;;;;;;;11.83;6.80;;;5.80;99.90;;;;;;4963221;29;20214;-89
2021/01/21 03:10:38;;;;;;;7.07;6.17;;;5.70;99.90;;;;;;4937636;29;20216;-89
2021/01/21 03:13:11;;;;;;;11.07;6.93;;;5.70;99.90;;;;;;4952493;29;20201;-92
2021/01/21 03:15:47;;;;;;;14.73;8.10;;;5.70;99.90;;;;;;4965541;29;20207;-92
2021/01/21 03:18:17;;;;;;;12.13;8.70;;;5.80;99.90;;;;;;4964851;29;20203;-89
2021/01/21 03:20:52;;;;;;;17.27;11.27;;;5.80;99.90;;;;;;4964610;29;20204;-88
2021/01/21 03:23:23;;;;;;;14.77;11.10;;;5.80;99.90;;;;;;4962622;29;20243;-90
2021/01/21 03:25:54;;;;;;;11.60;9.70;;;5.80;99.90;;;;;;4966311;29;20228;-89
2021/01/21 03:28:25;;;;;;;11.67;8.63;;;5.80;99.90;;;;;;4965034;29;20251;-89
2021/01/21 03:30:56;;;;;;;9.07;6.70;;;5.80;99.90;;;;;;4958335;29;20496;-89
2021/01/21 03:33:27;;;;;;;8.97;6.37;;;5.80;99.90;;;;;;4969209;29;20222;-88
2021/01/21 03:36:00;;;;;;;10.00;6.90;;;5.80;99.90;;;;;;4956245;29;20670;-88
2021/01/21 03:38:31;;;;;;;9.07;6.63;;;5.70;99.90;;;;;;4956608;29;20295;-88
2021/01/21 03:41:03;;;;;;;11.20;7.30;;;5.80;99.90;;;;;;4959156;29;20211;-87
2021/01/21 03:43:33;;;;;;;11.53;7.10;;;5.70;99.90;;;;;;4968689;29;20231;-89
2021/01/21 03:46:04;;;;;;;10.73;7.40;;;5.70;99.90;;;;;;4953231;29;20207;-88
2021/01/21 03:48:35;;;;;;;8.93;6.40;;;5.70;99.90;;;;;;4953682;29;20224;-89
2021/01/21 03:51:08;;;;;;;8.87;6.30;;;5.70;99.90;;;;;;4964677;29;20200;-89
2021/01/21 03:53:39;;;;;;;8.37;6.00;;;5.60;99.90;;;;;;4957647;29;20243;-88
2021/01/21 03:56:10;;;;;;;7.57;5.40;;;5.70;99.90;;;;;;4939518;29;20271;-89
2021/01/21 03:58:41;;;;;;;7.40;5.20;;;5.70;99.90;;;;;;4956698;29;20209;-89
2021/01/21 04:01:13;;;;;;;8.00;5.57;;;5.70;99.90;;;;;;4951638;29;20217;-89
2021/01/21 04:03:43;;;;;;;7.97;5.27;;;5.70;99.90;;;;;;4952263;29;20270;-89
2021/01/21 04:06:16;;;;;;;7.80;5.50;;;5.70;99.90;;;;;;4946254;29;20195;-89
2021/01/21 04:08:47;;;;;;;7.50;5.40;;;5.70;99.90;;;;;;4967049;29;20209;-89
2021/01/21 04:11:18;;;;;;;5.47;4.83;;;5.70;99.90;;;;;;4954920;29;20215;-89
2021/01/21 04:13:49;;;;;;;9.40;5.90;;;5.70;99.90;;;;;;4956860;29;20216;-89
2021/01/21 04:16:20;;;;;;;9.87;7.07;;;5.70;99.90;;;;;;4959714;28;20210;-88
2021/01/21 04:18:50;;;;;;;10.80;6.70;;;5.70;99.90;;;;;;4959244;29;20220;-88
2021/01/21 04:21:23;;;;;;;11.73;6.73;;;5.70;99.90;;;;;;4958901;29;20184;-89
2021/01/21 04:23:59;;;;;;;9.50;5.60;;;5.70;99.90;;;;;;4966528;28;20215;-89
2021/01/21 04:26:30;;;;;;;6.20;4.80;;;5.70;99.90;;;;;;4977870;28;20211;-89
2021/01/21 04:29:00;;;;;;;9.50;5.13;;;5.70;99.90;;;;;;4976815;29;20216;-89
2021/01/21 04:31:34;;;;;;;11.03;6.50;;;5.70;99.90;;;;;;4970261;29;20211;-89
2021/01/21 04:34:04;;;;;;;9.30;6.67;;;5.70;99.90;;;;;;4973404;29;20204;-90
2021/01/21 04:36:36;;;;;;;7.37;5.50;;;5.70;99.90;;;;;;4973171;29;20208;-90
2021/01/21 04:39:07;;;;;;;11.50;5.50;;;5.70;99.90;;;;;;4963534;29;20252;-91
2021/01/21 04:41:39;;;;;;;8.47;5.87;;;5.70;99.90;;;;;;4975600;28;20271;-89
2021/01/21 04:44:10;;;;;;;7.97;5.53;;;5.70;99.90;;;;;;4977420;28;20292;-87
2021/01/21 04:46:42;;;;;;;7.90;4.73;;;5.70;99.90;;;;;;4975632;28;20231;-89
2021/01/21 04:49:15;;;;;;;11.83;6.53;;;5.70;99.90;;;;;;4974474;28;20229;-88
2021/01/21 04:51:51;;;;;;;11.87;7.43;;;5.60;99.90;;;;;;4941102;29;20466;-89
2021/01/21 04:54:32;;;;;;;10.67;7.17;;;5.60;99.90;;;;;;4935639;29;20212;-88
2021/01/21 04:57:06;;;;;;;11.47;7.23;;;5.70;99.90;;;;;;4954838;29;20206;-88
2021/01/21 04:59:38;;;;;;;9.63;6.13;;;5.60;99.90;;;;;;4957653;28;20204;-89
2021/01/21 05:02:09;;;;;;;8.63;6.27;;;5.70;99.90;;;;;;4954401;29;20209;-89
2021/01/21 05:04:40;;;;;;;9.17;5.63;;;5.70;99.90;;;;;;4953427;29;20326;-90
2021/01/21 05:07:12;;;;;;;8.87;5.50;;;5.70;99.90;;;;;;4949650;29;20223;-88
2021/01/21 05:09:44;;;;;;;8.40;6.00;;;5.60;99.90;;;;;;4942998;29;20216;-89
2021/01/21 05:12:15;;;;;;;10.73;5.37;;;5.50;99.90;;;;;;4925453;29;20621;-89
2021/01/21 05:14:48;;;;;;;9.03;5.63;;;5.50;99.90;;;;;;4941846;29;20208;-89
2021/01/21 05:17:20;;;;;;;6.57;4.73;;;5.50;99.90;;;;;;4959863;29;20203;-89
2021/01/21 05:19:52;;;;;;;8.23;5.40;;;5.50;99.90;;;;;;4947053;29;20290;-89
2021/01/21 05:22:26;;;;;;;8.43;5.43;;;5.50;99.90;;;;;;4961635;29;20208;-89
2021/01/21 05:25:00;;;;;;;7.50;5.30;;;5.50;99.90;;;;;;4961360;29;20247;-89
2021/01/21 05:27:31;;;;;;;9.10;5.50;;;5.60;99.90;;;;;;4945746;29;20212;-90
2021/01/21 05:30:04;;;;;;;14.10;5.77;;;5.60;99.90;;;;;;4926901;29;20204;-90
2021/01/21 05:32:39;;;;;;;8.33;5.60;;;5.60;99.90;;;;;;4949673;29;20236;-89
2021/01/21 05:35:12;;;;;;;10.20;6.70;;;5.60;99.90;;;;;;4961007;29;20642;-89
2021/01/21 05:37:48;;;;;;;12.43;6.53;;;5.60;99.90;;;;;;4968103;29;20215;-89
2021/01/21 05:40:18;;;;;;;12.43;6.57;;;5.60;99.90;;;;;;4950235;29;20242;-88
2021/01/21 05:42:49;;;;;;;9.43;5.50;;;5.60;99.90;;;;;;4960883;29;20307;-88
2021/01/21 05:45:21;;;;;;;8.87;5.57;;;5.60;99.90;;;;;;4958940;29;20232;-88
2021/01/21 05:47:56;;;;;;;7.10;4.90;;;5.60;99.90;;;;;;4941649;29;20204;-89
2021/01/21 05:50:28;;;;;;;7.93;5.27;;;5.60;99.90;;;;;;4923911;29;20329;-89
2021/01/21 05:53:00;;;;;;;7.00;4.93;;;5.60;99.90;;;;;;4954416;28;20248;-89
2021/01/21 05:55:32;;;;;;;11.97;6.37;;;5.70;99.90;;;;;;4964882;29;20267;-88
2021/01/21 05:58:03;;;;;;;8.87;5.73;;;5.60;99.90;;;;;;4951330;29;20320;-89
2021/01/21 06:00:35;;;;;;;9.80;5.57;;;5.70;99.90;;;;;;4929826;29;20274;-89
2021/01/21 06:03:06;;;;;;;11.67;6.80;;;5.70;99.90;;;;;;4963827;29;20208;-89
2021/01/21 06:05:38;;;;;;;11.50;6.03;;;5.70;99.90;;;;;;4964147;29;20228;-88
2021/01/21 06:08:12;;;;;;;8.67;5.27;;;5.70;99.90;;;;;;4964024;29;20216;-89
2021/01/21 06:10:43;;;;;;;7.77;5.20;;;5.70;99.90;;;;;;4960095;29;20234;-89
2021/01/21 06:13:17;;;;;;;10.07;5.47;;;5.60;99.90;;;;;;4936924;29;20220;-89
2021/01/21 06:15:49;;;;;;;12.83;8.20;;;5.60;99.90;;;;;;4954408;29;20207;-88
2021/01/21 06:18:20;;;;;;;13.47;8.13;;;5.60;99.90;;;;;;4952425;29;20211;-89
2021/01/21 06:20:51;;;;;;;13.50;7.13;;;5.60;99.90;;;;;;4966950;29;20211;-89
2021/01/21 06:23:25;;;;;;;12.47;7.47;;;5.50;99.90;;;;;;4970763;29;20253;-89
2021/01/21 06:25:58;;;;;;;9.27;6.20;;;5.60;99.90;;;;;;4955921;29;20359;-88
2021/01/21 06:28:29;;;;;;;8.33;6.20;;;5.60;99.90;;;;;;4948517;29;20208;-89
2021/01/21 06:31:01;;;;;;;10.90;6.43;;;5.60;99.90;;;;;;4950243;29;20248;-89
2021/01/21 06:33:36;;;;;;;13.47;7.10;;;5.60;99.90;;;;;;4949560;29;20206;-89
2021/01/21 06:36:10;;;;;;;10.70;6.83;;;5.60;99.90;;;;;;4967981;29;20230;-89
2021/01/21 06:38:43;;;;;;;9.73;6.77;;;5.60;99.90;;;;;;4967723;29;20211;-87
2021/01/21 06:41:18;;;;;;;7.73;5.90;;;5.60;99.90;;;;;;4974514;28;20207;-90
2021/01/21 06:43:48;;;;;;;11.57;6.10;;;5.60;99.90;;;;;;4960325;29;20248;-87
2021/01/21 06:46:19;;;;;;;9.50;6.10;;;5.60;99.90;;;;;;4944147;28;20223;-90
2021/01/21 06:48:51;;;;;;;8.60;6.37;;;5.60;99.90;;;;;;4963847;29;20206;-90
2021/01/21 06:51:23;;;;;;;7.63;5.33;;;5.60;99.90;;;;;;4973315;29;20242;-88
2021/01/21 06:53:56;;;;;;;7.90;5.50;;;5.60;99.90;;;;;;4967117;29;20232;-89
2021/01/21 06:56:33;;;;;;;8.30;5.77;;;5.60;99.90;;;;;;4948971;29;20216;-89
2021/01/21 06:59:04;;;;;;;7.33;4.53;;;5.60;99.90;;;;;;4950373;29;20267;-89
2021/01/21 07:01:51;;;;;;;9.43;5.57;;;5.50;99.90;;;;;;4949987;29;20208;-88
2021/01/21 07:04:29;;;;;;;12.17;8.43;;;5.60;99.90;;;;;;4929187;29;20216;-89
2021/01/21 07:07:16;;;;;;;9.80;6.40;;;5.60;99.90;;;;;;4945155;29;20271;-89
2021/01/21 07:09:48;;;;;;;8.70;5.53;;;5.60;99.90;;;;;;4949910;29;20220;-88
2021/01/21 07:12:20;;;;;;;8.80;4.37;;;5.70;99.90;;;;;;4958207;29;20263;-88
2021/01/21 07:14:51;;;;;;;7.23;5.30;;;5.70;99.90;;;;;;4966410;29;20207;-87
2021/01/21 07:17:20;;;;;;;7.80;6.70;;;5.70;99.90;;;;;;4968962;29;20211;-89
2021/01/21 07:20:00;;;;;;;7.77;5.93;;;5.60;99.90;;;;;;4969350;29;20215;-90
2021/01/21 07:22:33;;;;;;;10.47;6.43;;;5.60;99.90;;;;;;4958228;29;20209;-90
2021/01/21 07:25:28;;;;;;;8.27;6.13;;;5.60;99.90;;;;;;4948979;29;20247;-90
2021/01/21 07:27:59;;;;;;;7.03;5.80;;;5.70;99.90;;;;;;4933515;29;20208;-89
2021/01/21 07:33:27;;;;;;;9.70;7.13;;;5.70;99.90;;;;;;4948619;29;20230;-88
2021/01/21 07:35:58;;;;;;;9.17;6.40;;;5.70;99.90;;;;;;4948242;29;20212;-89
2021/01/21 07:38:48;;;;;;;8.00;5.87;;;5.70;99.90;;;;;;4942727;29;20582;-88
2021/01/21 07:42:02;;;;;;;8.93;6.43;;;5.70;99.90;;;;;;4927046;29;20244;-88
2021/01/21 07:44:54;;;;;;;8.03;5.80;;;5.70;99.90;;;;;;4932279;29;20213;-89
2021/01/21 07:47:29;;;;;;;10.43;6.33;;;5.70;99.90;;;;;;4935326;29;20220;-88
2021/01/21 07:50:33;;;;;;;12.63;6.63;;;5.70;99.90;;;;;;4949568;29;20214;-88
2021/01/21 07:53:23;;;;;;;7.50;5.83;;;5.70;99.90;;;;;;4951786;29;20207;-89
2021/01/21 07:55:55;;;;;;;9.30;6.40;;;5.60;99.90;;;;;;4940475;29;20654;-89
2021/01/21 07:58:37;;;;;;;9.23;6.67;;;5.70;99.90;;;;;;4927826;29;20213;-89
2021/01/21 08:01:10;;;;;;;10.27;7.03;;;5.70;99.90;;;;;;4927280;29;20285;-88
2021/01/21 08:03:42;;;;;;;9.53;6.87;;;5.70;99.90;;;;;;4928980;29;20205;-91
2021/01/21 08:06:16;;;;;;;8.80;6.77;;;5.60;99.90;;;;;;4929319;29;20303;-89
2021/01/21 08:08:48;;;;;;;10.07;7.23;;;5.60;99.90;;;;;;4963454;29;20205;-89
2021/01/21 08:11:20;;;;;;;10.10;7.30;;;5.60;99.90;;;;;;4944219;29;20267;-89
2021/01/21 08:13:59;;;;;;;9.80;6.83;;;5.60;99.90;;;;;;4942860;29;20205;-89
2021/01/21 08:16:30;;;;;;;12.23;6.90;;;5.70;99.90;;;;;;4939661;29;20208;-88
2021/01/21 08:19:05;;;;;;;11.40;6.50;;;5.70;99.90;;;;;;4946657;29;20280;-90
2021/01/21 08:21:35;;;;;;;7.63;6.40;;;5.70;99.90;;;;;;4947066;29;20208;-90
2021/01/21 08:24:08;;;;;;;8.27;5.90;;;5.70;99.90;;;;;;4928906;29;20206;-89
2021/01/21 08:26:39;;;;;;;10.43;6.23;;;5.70;99.90;;;;;;4927420;29;20265;-89
2021/01/21 08:29:15;;;;;;;8.57;6.70;;;5.70;99.90;;;;;;4927535;29;20234;-90
2021/01/21 08:31:47;;;;;;;7.83;5.13;;;5.60;99.90;;;;;;4920282;29;20215;-89
2021/01/21 08:34:21;;;;;;;7.70;5.47;;;5.70;99.90;;;;;;4942890;29;20219;-90
2021/01/21 08:37:02;;;;;;;6.53;5.13;;;5.70;99.90;;;;;;4948702;29;20216;-89
2021/01/21 08:39:34;;;;;;;7.07;4.50;;;5.70;99.90;;;;;;4947213;29;20212;-88
2021/01/21 08:42:07;;;;;;;7.03;4.93;;;5.70;99.90;;;;;;4937925;29;20235;-88
2021/01/21 08:44:41;;;;;;;8.60;4.97;;;5.60;99.90;;;;;;4943663;29;20234;-88
2021/01/21 08:47:11;;;;;;;8.33;5.27;;;5.60;99.90;;;;;;4950496;29;20197;-89
2021/01/21 08:49:51;;;;;;;7.93;4.90;;;5.60;99.90;;;;;;4929724;29;20205;-89
2021/01/21 08:52:22;;;;;;;7.33;4.73;;;5.60;99.90;;;;;;4920440;29;20220;-89
2021/01/21 08:54:56;;;;;;;7.67;5.07;;;5.50;99.90;;;;;;4937689;29;20204;-88
2021/01/21 08:57:28;;;;;;;7.43;5.30;;;5.50;99.90;;;;;;4953472;28;20269;-90
2021/01/21 09:00:16;;;;;;;9.87;5.50;;;5.50;99.90;;;;;;4955701;29;20220;-89
2021/01/21 09:02:46;;;;;;;10.50;5.53;;;5.50;99.90;;;;;;4936102;29;20203;-89
2021/01/21 09:05:19;;;;;;;8.70;5.70;;;5.50;99.90;;;;;;4921311;29;20237;-89
2021/01/21 09:07:51;;;;;;;9.87;6.00;;;5.50;99.90;;;;;;4934170;29;20221;-89
2021/01/21 09:10:22;;;;;;;7.73;5.50;;;5.50;99.90;;;;;;4939187;29;20266;-86
2021/01/21 09:13:02;;;;;;;7.47;5.57;;;5.50;99.90;;;;;;4947634;29;20216;-89
2021/01/21 09:15:55;;;;;;;10.17;5.87;;;5.50;99.90;;;;;;4952503;29;20299;-90
2021/01/21 09:18:45;;;;;;;8.37;5.57;;;5.50;99.90;;;;;;4923314;29;20200;-89
2021/01/21 09:21:18;;;;;;;7.83;5.37;;;5.40;99.90;;;;;;4951623;29;20224;-89
2021/01/21 09:24:06;;;;;;;7.40;5.27;;;5.40;99.90;;;;;;4954208;29;20288;-89
2021/01/21 09:26:37;;;;;;;10.27;5.47;;;5.40;99.90;;;;;;4939070;29;20236;-88
2021/01/21 09:29:07;;;;;;;7.37;5.50;;;5.40;99.90;;;;;;4939162;29;20264;-88
2021/01/21 09:31:41;;;;;;;9.10;5.60;;;5.40;99.90;;;;;;4936334;29;20204;-89
2021/01/21 09:34:12;;;;;;;6.93;5.20;;;5.40;99.90;;;;;;4921490;29;20193;-89
2021/01/21 09:36:42;;;;;;;6.13;4.97;;;5.40;99.90;;;;;;4934842;29;20234;-90
2021/01/21 09:39:13;;;;;;;7.47;5.13;;;5.30;99.90;;;;;;4936482;29;20189;-89
2021/01/21 09:41:44;;;;;;;6.57;5.47;;;5.30;99.90;;;;;;4935775;29;20209;-88
2021/01/21 09:44:15;;;;;;;7.77;5.30;;;5.30;99.90;;;;;;4927885;29;20209;-88
2021/01/21 09:46:47;;;;;;;7.33;5.57;;;5.30;99.90;;;;;;4924119;29;20244;-89
2021/01/21 09:49:18;;;;;;;7.30;4.80;;;5.30;99.90;;;;;;4929661;29;20268;-89
2021/01/21 09:51:49;;;;;;;7.30;5.23;;;5.30;99.90;;;;;;4937306;29;20246;-89
2021/01/21 09:54:19;;;;;;;9.80;5.33;;;5.30;99.90;;;;;;4945018;29;20219;-89
2021/01/21 09:56:52;;;;;;;9.03;5.13;;;5.30;99.90;;;;;;4943114;29;20219;-88
2021/01/21 09:59:23;;;;;;;7.70;5.17;;;5.30;99.90;;;;;;4995549;23;20679;-89
2021/01/21 10:01:55;;;;;;;7.40;5.30;;;5.30;99.90;;;;;;5000699;28;20209;-89
2021/01/21 10:04:26;;;;;;;6.27;4.97;;;5.30;99.90;;;;;;5000575;28;20604;-88
2021/01/21 10:06:55;;;;;;;7.13;5.30;;;5.30;99.90;;;;;;5000273;28;20269;-88
2021/01/21 10:09:27;;;;;;;8.27;5.20;;;5.30;99.90;;;;;;4996269;28;20210;-89
2021/01/21 10:11:57;;;;;;;8.07;5.00;;;5.30;99.90;;;;;;4999386;28;20233;-89
2021/01/21 10:14:39;;;;;;;7.40;4.80;;;5.30;99.90;;;;;;5002523;28;20206;-88
2021/01/21 10:17:11;;;;;;;9.00;5.43;;;5.40;99.90;;;;;;4999397;28;20218;-89
2021/01/21 10:19:42;;;;;;;8.60;5.17;;;5.30;99.90;;;;;;4983896;28;20207;-88
2021/01/21 10:22:13;;;;;;;8.40;5.00;;;5.40;99.90;;;;;;4990063;28;20258;-89
2021/01/21 10:24:45;;;;;;;8.50;5.20;;;5.30;99.90;;;;;;5002604;28;20211;-88
2021/01/21 10:27:16;;;;;;;6.73;4.67;;;5.30;99.90;;;;;;4995058;28;20206;-89
2021/01/21 10:29:46;;;;;;;5.93;4.97;;;5.30;99.90;;;;;;4996925;28;20210;-89
2021/01/21 10:32:34;;;;;;;7.07;5.23;;;5.30;99.90;;;;;;4989202;28;20226;-88
2021/01/21 10:35:05;;;;;;;7.10;5.23;;;5.30;99.90;;;;;;4980546;28;20237;-89
2021/01/21 10:37:36;;;;;;;7.37;4.70;;;5.30;99.90;;;;;;4995928;28;20222;-88
2021/01/21 10:40:09;;;;;;;8.27;5.17;;;5.30;99.90;;;;;;4988555;28;20227;-89
2021/01/21 10:42:40;;;;;;;7.73;5.07;;;5.30;99.90;;;;;;4978251;28;20731;-87
2021/01/21 10:45:12;;;;;;;7.73;4.70;;;5.30;99.90;;;;;;4990470;28;20237;-89
2021/01/21 10:47:44;;;;;;;6.40;4.63;;;5.30;99.90;;;;;;4997599;28;20698;-89
2021/01/21 10:50:15;;;;;;;6.63;5.27;;;5.30;99.90;;;;;;4996782;28;20251;-89
2021/01/21 10:52:46;;;;;;;8.13;4.93;;;5.30;99.90;;;;;;4997732;28;20229;-89
2021/01/21 10:55:17;;;;;;;7.50;4.93;;;5.20;99.90;;;;;;4997706;28;20229;-89
2021/01/21 10:57:48;;;;;;;7.77;5.20;;;5.30;99.90;;;;;;4997970;28;20210;-90
2021/01/21 11:00:20;;;;;;;6.50;4.83;;;5.30;99.90;;;;;;4997127;28;20242;-89
2021/01/21 11:02:52;;;;;;;9.10;5.47;;;5.40;99.90;;;;;;4994844;28;20206;-89
2021/01/21 11:05:23;;;;;;;6.87;4.67;;;5.30;99.90;;;;;;4999130;28;20258;-88
2021/01/21 11:07:54;;;;;;;9.87;4.87;;;5.20;99.90;;;;;;5012091;28;20190;-89
2021/01/21 11:10:25;;;;;;;9.10;4.97;;;5.20;99.90;;;;;;5009305;28;20207;-89
2021/01/21 11:12:55;;;;;;;5.80;4.97;;;5.20;99.90;;;;;;4991603;28;20298;-88
2021/01/21 11:15:26;;;;;;;6.27;4.80;;;5.20;99.90;;;;;;4992948;28;20198;-89
2021/01/21 11:17:58;;;;;;;6.20;4.50;;;5.30;99.90;;;;;;5002402;28;20229;-88
2021/01/21 11:20:34;;;;;;;5.37;4.30;;;5.30;99.90;;;;;;4999151;28;20218;-89
2021/01/21 11:23:05;;;;;;;5.50;4.30;;;5.30;99.90;;;;;;4998075;28;20206;-89
2021/01/21 11:25:36;;;;;;;7.07;4.60;;;5.30;99.90;;;;;;4999556;28;20325;-89
2021/01/21 11:28:11;;;;;;;7.67;5.17;;;5.30;99.90;;;;;;4995312;28;20214;-88
2021/01/21 11:30:42;;;;;;;6.17;4.60;;;5.20;99.90;;;;;;4999703;28;20272;-89
2021/01/21 11:33:14;;;;;;;6.77;4.77;;;5.20;99.90;;;;;;4997542;28;20210;-88
2021/01/21 11:35:44;;;;;;;5.40;4.00;;;5.30;99.90;;;;;;4998808;28;20214;-89
2021/01/21 11:38:15;;;;;;;6.40;4.20;;;5.30;99.90;;;;;;4996195;28;20567;-90
2021/01/21 11:40:46;;;;;;;5.17;4.30;;;5.20;99.90;;;;;;4996993;28;20354;-89
2021/01/21 11:43:16;;;;;;;5.40;4.27;;;5.20;99.90;;;;;;4998051;28;20198;-89
2021/01/21 11:45:47;;;;;;;6.33;4.20;;;5.30;99.90;;;;;;4997689;28;20289;-89
2021/01/21 11:48:20;;;;;;;6.83;4.30;;;5.30;99.90;;;;;;4997853;28;20214;-89
2021/01/21 11:50:52;;;;;;;5.47;4.20;;;5.30;99.90;;;;;;4995415;28;20218;-88
2021/01/21 11:53:22;;;;;;;6.40;4.10;;;5.30;99.90;;;;;;4997447;28;20232;-89
2021/01/21 11:55:53;;;;;;;5.10;4.00;;;5.20;99.90;;;;;;4995137;28;20213;-89
2021/01/21 11:58:24;;;;;;;6.40;4.10;;;5.20;99.90;;;;;;4978476;28;20217;-88
2021/01/21 12:00:55;;;;;;;5.27;4.23;;;5.20;99.90;;;;;;4977075;28;20224;-88
2021/01/21 12:03:27;;;;;;;8.10;4.30;;;5.20;99.90;;;;;;4979733;28;20207;-87
2021/01/21 12:05:58;;;;;;;6.00;3.70;;;5.20;99.90;;;;;;4979959;28;20250;-89
2021/01/21 12:08:30;;;;;;;6.80;4.17;;;5.20;99.90;;;;;;4977575;28;20632;-89
2021/01/21 12:11:01;;;;;;;5.70;3.83;;;5.20;99.90;;;;;;4978135;28;20238;-89
2021/01/21 12:13:32;;;;;;;6.30;3.80;;;5.20;99.90;;;;;;4989945;28;20681;-88
2021/01/21 12:16:03;;;;;;;7.13;4.07;;;5.20;99.90;;;;;;4986789;28;20242;-89
2021/01/21 12:18:35;;;;;;;6.07;4.00;;;5.20;99.90;;;;;;4977158;28;20521;-90
2021/01/21 12:21:06;;;;;;;5.00;4.17;;;5.20;99.90;;;;;;4978487;28;20272;-89
2021/01/21 12:23:37;;;;;;;7.77;4.40;;;5.20;99.90;;;;;;4996946;28;20203;-89
2021/01/21 12:26:08;;;;;;;4.10;3.47;;;5.20;99.90;;;;;;4996759;28;20229;-89
2021/01/21 12:28:39;;;;;;;5.57;4.03;;;5.20;99.90;;;;;;4995975;28;20210;-89
2021/01/21 12:31:10;;;;;;;5.37;4.37;;;5.20;99.90;;;;;;4998384;28;20242;-89
2021/01/21 12:33:42;;;;;;;8.27;4.57;;;5.20;99.90;;;;;;4996693;28;20317;-89
2021/01/21 12:36:12;;;;;;;6.30;4.07;;;5.20;99.90;;;;;;4997177;28;20203;-89
2021/01/21 12:38:43;;;;;;;6.03;3.80;;;5.20;99.90;;;;;;4996194;28;20293;-88
2021/01/21 12:41:14;;;;;;;6.13;3.70;;;5.20;99.90;;;;;;4979978;28;20286;-89
2021/01/21 12:43:45;;;;;;;5.23;3.80;;;5.30;99.90;;;;;;4991004;28;20261;-87
2021/01/21 12:46:15;;;;;;;7.97;4.33;;;5.20;99.90;;;;;;4996613;28;20288;-88
2021/01/21 12:48:48;;;;;;;5.93;3.93;;;5.20;99.90;;;;;;4984741;28;20238;-89
2021/01/21 12:51:18;;;;;;;5.27;3.90;;;5.10;99.90;;;;;;4976462;28;20572;-88
2021/01/21 12:53:49;;;;;;;5.67;4.37;;;5.10;99.90;;;;;;4977013;28;20259;-89
2021/01/21 12:56:19;;;;;;;5.40;3.70;;;5.10;99.90;;;;;;4978708;28;20258;-89
2021/01/21 12:58:50;;;;;;;7.87;4.17;;;5.10;99.90;;;;;;4996733;28;20206;-89
2021/01/21 13:01:21;;;;;;;6.27;4.43;;;5.10;99.90;;;;;;4992856;28;20207;-89
2021/01/21 13:03:53;;;;;;;5.90;3.93;;;5.10;99.90;;;;;;4977369;28;20203;-89
2021/01/21 13:06:23;;;;;;;4.90;3.70;;;5.10;99.90;;;;;;4977276;28;20238;-89
2021/01/21 13:08:54;;;;;;;6.47;4.20;;;5.10;99.90;;;;;;4976750;28;20906;-89
2021/01/21 13:11:24;;;;;;;5.57;4.50;;;5.10;99.90;;;;;;4976474;28;20225;-88
2021/01/21 13:13:55;;;;;;;7.40;4.70;;;5.00;99.90;;;;;;4978150;28;20229;-88
2021/01/21 13:16:26;;;;;;;6.23;4.40;;;5.00;99.90;;;;;;4997696;28;20247;-88
2021/01/21 13:19:00;;;;;;;5.80;4.17;;;5.10;99.90;;;;;;4996450;28;20206;-88
2021/01/21 13:21:31;;;;;;;5.83;4.70;;;5.00;99.90;;;;;;4999545;28;20218;-88
2021/01/21 13:24:01;;;;;;;6.57;4.43;;;5.00;99.90;;;;;;4995831;28;20207;-88
2021/01/21 13:26:32;;;;;;;6.07;4.80;;;4.90;99.90;;;;;;4995595;28;20242;-89
2021/01/21 13:29:03;;;;;;;6.17;4.60;;;5.00;99.90;;;;;;5001718;28;20276;-88
2021/01/21 13:31:33;;;;;;;6.27;4.37;;;5.00;99.90;;;;;;4995871;28;20210;-89